createdAt,value
2022-08-25T00:00:30.922Z,101597.03
2022-08-25T00:03:01.069Z,101593.53
2022-08-25T00:05:33.697Z,101589.06
2022-08-25T00:08:06.463Z,101583.03
2022-08-25T00:10:38.280Z,101579.81
2022-08-25T00:13:10.229Z,101573.38
2022-08-25T00:15:40.247Z,101585.25
2022-08-25T00:18:19.508Z,101578.78
2022-08-25T00:20:49.681Z,101581.19
2022-08-25T00:23:20.191Z,101515.91
2022-08-25T00:25:51.184Z,101577.66
2022-08-25T00:28:22.093Z,101573.81
2022-08-25T00:30:52.123Z,101569.50
2022-08-25T00:33:21.723Z,101574.81
2022-08-25T00:35:51.685Z,101570.28
2022-08-25T00:38:21.194Z,101577.00
2022-08-25T00:41:06.272Z,101582.59
2022-08-25T00:43:46.760Z,101576.69
2022-08-25T00:46:19.379Z,101569.59
2022-08-25T00:48:53.363Z,101573.34
2022-08-25T00:51:29.363Z,101564.13
2022-08-25T00:53:59.848Z,101569.59
2022-08-25T00:56:31.875Z,101571.94
2022-08-25T00:59:05.637Z,101569.66
2022-08-25T01:01:36.732Z,101565.72
2022-08-25T01:04:07.789Z,101563.47
2022-08-25T01:06:44.056Z,101564.56
2022-08-25T01:09:15.718Z,101552.28
2022-08-25T01:11:49.206Z,101559.53
2022-08-25T01:14:22.870Z,101555.84
2022-08-25T01:16:54.115Z,101560.28
2022-08-25T01:19:23.233Z,101554.88
2022-08-25T01:21:55.274Z,101558.28
2022-08-25T01:24:32.720Z,101557.72
2022-08-25T01:27:03.116Z,101519.84
2022-08-25T01:29:37.438Z,101560.50
2022-08-25T01:32:09.359Z,101554.81
2022-08-25T01:34:43.014Z,101554.63
2022-08-25T01:37:16.331Z,101559.78
2022-08-25T01:39:46.348Z,101552.34
2022-08-25T01:42:26.286Z,101553.41
2022-08-25T01:44:55.688Z,101549.56
2022-08-25T01:47:26.102Z,101559.81
2022-08-25T01:49:56.228Z,101535.16
2022-08-25T01:52:31.301Z,101548.75
2022-08-25T01:55:00.811Z,101549.97
2022-08-25T01:57:32.752Z,101550.22
2022-08-25T02:00:02.399Z,101548.09
2022-08-25T02:02:42.641Z,101542.91
2022-08-25T02:05:20.335Z,101540.53
2022-08-25T02:07:55.502Z,101525.31
2022-08-25T02:10:25.109Z,101535.84
2022-08-25T02:12:54.828Z,101536.91
2022-08-25T02:15:24.423Z,101539.75
2022-08-25T02:17:53.668Z,101536.63
2022-08-25T02:20:24.302Z,101529.25
2022-08-25T02:22:56.968Z,101522.69
2022-08-25T02:25:25.986Z,101527.41
2022-08-25T02:27:55.433Z,101524.50
2022-08-25T02:30:25.231Z,101527.28
2022-08-25T02:32:54.864Z,101517.78
2022-08-25T02:35:25.619Z,101514.09
2022-08-25T02:37:56.909Z,101524.22
2022-08-25T02:40:26.851Z,101516.97
2022-08-25T02:42:57.444Z,101521.31
2022-08-25T02:45:26.846Z,101524.91
2022-08-25T02:47:57.531Z,101514.31
2022-08-25T02:50:29.325Z,101504.97
2022-08-25T02:53:00.831Z,101471.53
2022-08-25T02:55:30.182Z,101473.31
2022-08-25T02:58:03.851Z,101500.38
2022-08-25T03:00:33.748Z,101494.13
2022-08-25T03:03:02.976Z,101495.31
2022-08-25T03:05:32.784Z,101473.22
2022-08-25T03:08:03.715Z,101487.63
2022-08-25T03:10:34.748Z,101485.34
2022-08-25T03:13:05.168Z,101466.47
2022-08-25T03:15:38.067Z,101486.94
2022-08-25T03:18:08.723Z,101479.47
2022-08-25T03:20:39.602Z,101477.53
2022-08-25T03:23:11.189Z,101482.94
2022-08-25T03:26:00.725Z,101480.81
2022-08-25T03:28:33.237Z,101472.53
2022-08-25T03:31:03.188Z,101474.91
2022-08-25T03:33:33.260Z,101479.97
2022-08-25T03:36:03.465Z,101475.03
2022-08-25T03:38:36.380Z,101458.47
2022-08-25T03:41:15.147Z,101464.84
2022-08-25T03:43:45.155Z,101465.66
2022-08-25T03:46:23.381Z,101464.34
2022-08-25T03:48:53.886Z,101458.59
2022-08-25T03:51:25.443Z,101451.63
2022-08-25T03:53:59.534Z,101456.06
2022-08-25T03:56:28.620Z,101449.94
2022-08-25T03:58:58.560Z,101446.22
2022-08-25T04:01:28.663Z,101429.41
2022-08-25T04:04:00.311Z,101439.84
2022-08-25T04:06:29.560Z,101439.59
2022-08-25T04:09:00.722Z,101438.41
2022-08-25T04:11:30.592Z,101408.97
2022-08-25T04:14:02.719Z,101436.00
2022-08-25T04:16:34.682Z,101439.50
2022-08-25T04:19:09.744Z,101435.06
2022-08-25T04:21:42.254Z,101427.63
2022-08-25T04:24:14.099Z,101435.66
2022-08-25T04:26:44.967Z,101423.53
2022-08-25T04:29:17.486Z,101428.22
2022-08-25T04:31:50.263Z,101418.44
2022-08-25T04:34:30.742Z,101423.53
2022-08-25T04:37:04.317Z,101421.09
2022-08-25T04:39:35.276Z,101415.44
2022-08-25T04:42:05.082Z,101422.53
2022-08-25T04:44:34.161Z,101413.88
2022-08-25T04:47:03.433Z,101422.06
2022-08-25T04:49:32.950Z,101425.78
2022-08-25T04:52:02.042Z,101427.97
2022-08-25T04:54:37.217Z,101424.69
2022-08-25T04:57:08.378Z,101410.88
2022-08-25T04:59:37.957Z,101420.25
2022-08-25T05:02:07.383Z,101430.69
2022-08-25T05:04:37.948Z,101427.09
2022-08-25T05:07:10.138Z,101418.81
2022-08-25T05:09:39.554Z,101432.63
2022-08-25T05:12:10.906Z,101431.66
2022-08-25T05:14:41.663Z,101421.34
2022-08-25T05:17:11.255Z,101411.97
2022-08-25T05:19:40.548Z,101395.41
2022-08-25T05:22:10.417Z,101410.75
2022-08-25T05:24:39.932Z,101312.97
2022-08-25T05:27:10.373Z,101435.72
2022-08-25T05:29:42.590Z,101436.13
2022-08-25T05:32:12.000Z,101445.16
2022-08-25T05:34:41.605Z,101439.84
2022-08-25T05:37:12.249Z,101241.16
2022-08-25T05:39:41.722Z,101447.78
2022-08-25T05:42:13.898Z,101451.28
2022-08-25T05:44:45.404Z,101430.13
2022-08-25T05:47:15.008Z,101442.84
2022-08-25T05:49:44.518Z,101440.56
2022-08-25T05:52:17.730Z,101445.84
2022-08-25T05:54:49.545Z,101445.22
2022-08-25T05:57:19.731Z,101452.31
2022-08-25T05:59:49.054Z,101453.38
2022-08-25T06:02:35.833Z,101455.88
2022-08-25T06:05:05.998Z,101430.50
2022-08-25T06:07:36.247Z,101455.09
2022-08-25T06:10:06.403Z,101451.25
2022-08-25T06:12:41.244Z,101451.03
2022-08-25T06:15:13.964Z,101453.56
2022-08-25T06:17:43.285Z,101443.19
2022-08-25T06:20:17.775Z,101443.78
2022-08-25T06:22:47.888Z,101451.94
2022-08-25T06:25:18.938Z,101442.13
2022-08-25T06:27:50.219Z,101437.41
2022-08-25T06:30:24.571Z,101435.63
2022-08-25T06:32:58.447Z,101425.72
2022-08-25T06:35:28.146Z,101425.97
2022-08-25T06:37:58.087Z,101426.16
2022-08-25T06:40:29.195Z,101423.06
2022-08-25T06:42:59.922Z,101423.44
2022-08-25T06:45:31.724Z,101434.81
2022-08-25T06:48:01.053Z,101362.53
2022-08-25T06:50:33.042Z,101436.25
2022-08-25T06:53:02.582Z,101446.50
2022-08-25T06:55:31.685Z,101444.59
2022-08-25T06:58:03.407Z,101441.78
2022-08-25T07:00:34.358Z,101443.50
2022-08-25T07:03:05.084Z,101442.16
2022-08-25T07:05:43.798Z,101435.16
2022-08-25T07:08:14.401Z,101429.38
2022-08-25T07:10:48.082Z,101438.13
2022-08-25T07:13:18.663Z,101430.94
2022-08-25T07:15:55.027Z,101429.16
2022-08-25T07:18:24.323Z,101418.53
2022-08-25T07:20:56.767Z,101425.41
2022-08-25T07:23:26.784Z,101430.16
2022-08-25T07:25:58.454Z,101422.97
2022-08-25T07:28:29.300Z,101424.66
2022-08-25T07:31:00.989Z,101422.88
2022-08-25T07:33:32.909Z,101423.94
2022-08-25T07:36:02.676Z,101419.19
2022-08-25T07:38:32.200Z,101427.34
2022-08-25T07:41:07.691Z,101454.41
2022-08-25T07:43:41.990Z,101424.91
2022-08-25T07:46:11.312Z,101418.41
2022-08-25T07:48:40.696Z,101323.75
2022-08-25T07:51:11.661Z,101421.44
2022-08-25T07:53:41.261Z,101430.44
2022-08-25T07:56:12.607Z,101448.84
2022-08-25T07:58:49.189Z,101425.91
2022-08-25T08:01:20.792Z,101422.59
2022-08-25T08:03:51.718Z,101426.84
2022-08-25T08:06:24.083Z,101418.03
2022-08-25T08:08:54.646Z,101420.22
2022-08-25T08:11:28.515Z,101386.13
2022-08-25T08:14:00.075Z,101422.09
2022-08-25T08:16:31.208Z,101411.06
2022-08-25T08:19:03.189Z,101401.63
2022-08-25T08:21:34.521Z,101416.16
2022-08-25T08:24:10.718Z,101427.69
2022-08-25T08:26:57.833Z,101416.88
2022-08-25T08:29:28.705Z,101422.72
2022-08-25T08:31:58.435Z,101406.16
2022-08-25T08:34:27.598Z,101417.91
2022-08-25T08:36:56.362Z,101413.69
2022-08-25T08:39:31.564Z,101407.22
2022-08-25T08:42:19.851Z,101366.25
2022-08-25T08:45:12.256Z,101412.47
2022-08-25T08:47:52.949Z,101420.84
2022-08-25T08:50:32.917Z,101415.59
2022-08-25T08:53:10.273Z,101417.28
2022-08-25T08:55:44.052Z,101410.66
2022-08-25T08:58:17.561Z,101420.81
2022-08-25T09:00:52.453Z,101416.91
2022-08-25T09:03:32.340Z,101417.44
2022-08-25T09:06:04.622Z,101426.53
2022-08-25T09:08:36.363Z,101421.25
2022-08-25T09:11:16.451Z,101413.25
2022-08-25T09:14:07.248Z,101426.28
2022-08-25T09:16:58.082Z,101414.97
2022-08-25T09:19:42.313Z,101388.63
2022-08-25T09:22:35.891Z,101414.06
2022-08-25T09:25:12.763Z,101405.06
2022-08-25T09:27:48.386Z,101405.53
2022-08-25T09:30:19.558Z,101409.13
2022-08-25T09:33:02.191Z,101399.25
2022-08-25T09:35:33.949Z,101410.00
2022-08-25T09:38:07.488Z,101404.91
2022-08-25T09:40:39.125Z,101406.91
2022-08-25T09:43:21.519Z,101410.91
2022-08-25T09:45:57.155Z,101398.69
2022-08-25T09:48:40.796Z,101394.44
2022-08-25T09:51:19.100Z,101400.06
2022-08-25T09:53:55.855Z,101384.78
2022-08-25T09:56:29.437Z,101394.19
2022-08-25T09:59:18.483Z,101389.63
2022-08-25T10:01:52.217Z,101366.13
2022-08-25T10:04:29.534Z,101383.56
2022-08-25T10:07:00.639Z,101390.22
2022-08-25T10:09:35.133Z,101380.63
2022-08-25T10:12:04.991Z,101381.25
2022-08-25T10:14:38.878Z,101378.44
2022-08-25T10:17:17.169Z,101381.25
2022-08-25T10:19:47.588Z,101376.22
2022-08-25T10:22:25.892Z,101368.69
2022-08-25T10:24:55.736Z,101371.47
2022-08-25T10:27:32.141Z,101361.88
2022-08-25T10:30:09.357Z,101364.44
2022-08-25T10:32:51.708Z,101362.00
2022-08-25T10:35:28.165Z,101351.66
2022-08-25T10:38:09.568Z,101358.69
2022-08-25T10:40:47.423Z,101362.00
2022-08-25T10:43:26.704Z,101352.56
2022-08-25T10:46:06.135Z,101335.16
2022-08-25T10:48:57.496Z,101345.63
2022-08-25T10:51:56.097Z,101344.88
2022-08-25T10:54:43.383Z,101338.78
2022-08-25T10:57:22.937Z,101341.59
2022-08-25T10:59:59.905Z,101336.47
2022-08-25T11:03:12.453Z,101329.88
2022-08-25T11:05:44.786Z,101332.94
2022-08-25T11:08:16.828Z,101334.81
2022-08-25T11:10:51.168Z,101335.19
2022-08-25T11:13:28.839Z,101348.13
2022-08-25T11:16:17.085Z,101326.66
2022-08-25T11:18:54.719Z,101337.38
2022-08-25T11:21:28.473Z,101333.91
2022-08-25T11:24:05.985Z,101338.66
2022-08-25T11:26:40.661Z,101333.09
2022-08-25T11:29:16.696Z,101338.56
2022-08-25T11:31:53.820Z,101329.09
2022-08-25T11:34:24.202Z,101322.13
2022-08-25T11:36:56.432Z,101320.28
2022-08-25T11:39:49.533Z,101313.56
2022-08-25T11:42:32.004Z,101306.31
2022-08-25T11:45:12.416Z,101309.66
2022-08-25T11:48:10.620Z,101302.69
2022-08-25T11:50:59.485Z,101261.00
2022-08-25T11:53:30.917Z,101307.56
2022-08-25T11:56:07.271Z,101300.59
2022-08-25T11:58:43.628Z,101304.75
2022-08-25T12:01:52.553Z,101310.59
2022-08-25T12:04:44.035Z,101302.50
2022-08-25T12:07:22.061Z,101299.81
2022-08-25T12:10:19.708Z,101287.53
2022-08-25T12:13:22.425Z,101269.50
2022-08-25T12:16:03.954Z,101263.06
2022-08-25T12:18:46.338Z,101282.38
2022-08-25T12:21:31.813Z,101276.75
2022-08-25T12:24:13.818Z,101278.81
2022-08-25T12:26:57.178Z,101277.13
2022-08-25T12:29:35.917Z,101283.78
2022-08-25T12:32:21.555Z,101285.25
2022-08-25T12:35:30.778Z,101277.78
2022-08-25T12:38:05.915Z,101281.06
2022-08-25T12:41:00.761Z,101263.56
2022-08-25T12:43:33.958Z,101266.94
2022-08-25T12:46:39.578Z,101268.75
2022-08-25T12:49:30.004Z,101251.31
2022-08-25T12:52:08.557Z,101262.31
2022-08-25T12:54:49.781Z,101265.22
2022-08-25T12:57:40.566Z,101203.88
2022-08-25T13:00:18.892Z,101261.72
2022-08-25T13:03:09.665Z,101274.38
2022-08-25T13:06:05.867Z,101268.75
2022-08-25T13:09:21.700Z,101268.56
2022-08-25T13:11:57.971Z,101272.31
2022-08-25T13:14:37.788Z,101268.19
2022-08-25T13:17:11.047Z,101263.22
2022-08-25T13:19:41.587Z,101267.59
2022-08-25T13:22:16.011Z,101266.56
2022-08-25T13:24:50.671Z,101270.50
2022-08-25T13:27:25.361Z,101261.72
2022-08-25T13:29:58.117Z,101257.13
2022-08-25T13:32:32.501Z,101249.81
2022-08-25T13:35:19.642Z,101243.84
2022-08-25T13:37:49.561Z,101246.56
2022-08-25T13:40:26.131Z,101247.59
2022-08-25T13:43:01.090Z,101251.25
2022-08-25T13:45:41.188Z,101248.59
2022-08-25T13:48:22.788Z,101251.00
2022-08-25T13:50:54.870Z,101247.25
2022-08-25T13:53:26.774Z,101046.34
2022-08-25T13:56:01.407Z,101246.56
2022-08-25T13:58:44.799Z,101209.22
2022-08-25T14:01:22.787Z,101240.78
2022-08-25T14:04:32.012Z,101234.00
2022-08-25T14:07:19.490Z,101241.72
2022-08-25T14:09:53.466Z,101235.88
2022-08-25T14:12:36.906Z,101233.41
2022-08-25T14:15:11.590Z,101236.09
2022-08-25T14:17:42.572Z,101238.38
2022-08-25T14:20:21.976Z,101235.88
2022-08-25T14:22:58.086Z,101241.69
2022-08-25T14:25:27.808Z,101239.41
2022-08-25T14:28:06.639Z,101234.03
2022-08-25T14:30:46.154Z,101235.47
2022-08-25T14:33:19.831Z,101146.47
2022-08-25T14:35:52.214Z,101234.44
2022-08-25T14:38:25.054Z,101240.03
2022-08-25T14:40:54.684Z,101237.34
2022-08-25T14:43:24.083Z,101240.38
2022-08-25T14:46:02.621Z,101233.78
2022-08-25T14:48:37.067Z,101237.72
2022-08-25T14:51:07.093Z,101236.31
2022-08-25T14:53:37.366Z,101227.19
2022-08-25T14:56:09.289Z,101228.00
2022-08-25T14:58:50.968Z,101228.78
2022-08-25T15:01:29.504Z,101223.56
2022-08-25T15:04:04.913Z,101230.44
2022-08-25T15:06:36.242Z,101227.78
2022-08-25T15:09:13.832Z,101226.53
2022-08-25T15:11:45.757Z,101230.03
2022-08-25T15:14:17.494Z,101220.06
2022-08-25T15:16:50.449Z,101223.41
2022-08-25T15:19:21.870Z,101207.97
2022-08-25T15:21:53.002Z,101222.31
2022-08-25T15:24:25.606Z,101218.25
2022-08-25T15:26:58.121Z,101225.84
2022-08-25T15:29:30.080Z,101227.16
2022-08-25T15:32:00.906Z,101221.22
2022-08-25T15:34:30.046Z,101221.66
2022-08-25T15:37:01.234Z,101227.34
2022-08-25T15:39:33.416Z,101231.34
2022-08-25T15:42:06.555Z,101221.06
2022-08-25T15:44:35.736Z,101235.44
2022-08-25T15:47:05.195Z,101232.13
2022-08-25T15:49:34.851Z,101237.25
2022-08-25T15:52:04.804Z,101237.91
2022-08-25T15:54:35.152Z,101245.41
2022-08-25T15:57:08.768Z,101244.94
2022-08-25T15:59:41.661Z,101249.22
2022-08-25T16:02:15.094Z,101254.84
2022-08-25T16:04:44.384Z,101250.03
2022-08-25T16:07:16.064Z,101252.31
2022-08-25T16:09:47.172Z,101248.06
2022-08-25T16:12:16.457Z,101201.50
2022-08-25T16:14:45.988Z,101246.88
2022-08-25T16:17:15.559Z,101246.91
2022-08-25T16:19:45.021Z,101245.03
2022-08-25T16:22:13.797Z,101239.19
2022-08-25T16:24:44.546Z,101238.72
2022-08-25T16:27:15.476Z,101246.09
2022-08-25T16:29:45.585Z,101248.25
2022-08-25T16:32:15.653Z,101248.81
2022-08-25T16:34:45.319Z,101236.06
2022-08-25T16:37:16.784Z,101257.47
2022-08-25T16:39:46.183Z,101243.94
2022-08-25T16:42:16.933Z,101248.81
2022-08-25T16:44:46.773Z,101237.81
2022-08-25T16:47:17.749Z,101234.31
2022-08-25T16:49:51.692Z,101231.47
2022-08-25T16:52:38.023Z,101225.44
2022-08-25T16:55:16.491Z,101227.28
2022-08-25T16:57:49.539Z,101230.13
2022-08-25T17:00:23.436Z,101228.09
2022-08-25T17:02:55.608Z,101235.94
2022-08-25T17:05:24.309Z,101247.81
2022-08-25T17:08:14.122Z,101249.44
2022-08-25T17:10:44.770Z,101226.03
2022-08-25T17:13:15.762Z,101225.25
2022-08-25T17:15:48.719Z,101251.00
2022-08-25T17:18:21.419Z,101243.81
2022-08-25T17:21:00.400Z,101241.81
2022-08-25T17:23:32.340Z,101131.63
2022-08-25T17:26:01.547Z,101259.06
2022-08-25T17:28:32.505Z,101247.94
2022-08-25T17:31:04.347Z,101260.72
2022-08-25T17:33:33.585Z,101260.13
2022-08-25T17:36:02.423Z,101254.47
2022-08-25T17:38:33.298Z,101255.44
2022-08-25T17:41:06.668Z,101255.94
2022-08-25T17:43:38.736Z,101255.41
2022-08-25T17:46:07.709Z,101261.44
2022-08-25T17:48:43.829Z,101267.63
2022-08-25T17:51:12.916Z,101247.88
2022-08-25T17:53:44.879Z,101268.47
2022-08-25T17:56:20.079Z,101269.53
2022-08-25T17:58:51.051Z,101264.94
2022-08-25T18:01:24.105Z,101271.69
2022-08-25T18:03:53.099Z,101266.38
2022-08-25T18:06:22.918Z,101247.44
2022-08-25T18:08:56.355Z,101277.00
2022-08-25T18:11:30.158Z,101283.03
2022-08-25T18:14:00.861Z,101282.34
2022-08-25T18:16:30.242Z,101294.50
2022-08-25T18:18:59.166Z,101292.66
2022-08-25T18:21:32.631Z,101310.84
2022-08-25T18:24:02.580Z,101301.78
2022-08-25T18:26:33.012Z,101279.41
2022-08-25T18:29:06.639Z,101310.97
2022-08-25T18:31:36.332Z,101208.63
2022-08-25T18:34:09.470Z,101319.69
2022-08-25T18:36:39.371Z,101319.84
2022-08-25T18:39:25.928Z,101321.66
2022-08-25T18:41:55.910Z,101197.22
2022-08-25T18:44:26.196Z,101326.16
2022-08-25T18:46:55.054Z,101298.44
2022-08-25T18:49:26.694Z,101323.78
2022-08-25T18:51:57.460Z,101331.91
2022-08-25T18:54:26.591Z,101325.53
2022-08-25T18:56:56.423Z,101209.47
2022-08-25T18:59:29.189Z,101323.84
2022-08-25T19:01:58.730Z,101354.16
2022-08-25T19:04:32.107Z,101344.09
2022-08-25T19:07:01.216Z,101347.03
2022-08-25T19:09:30.730Z,101346.97
2022-08-25T19:11:59.830Z,101353.44
2022-08-25T19:14:30.765Z,101349.00
2022-08-25T19:17:00.876Z,101354.88
2022-08-25T19:19:29.810Z,101356.63
2022-08-25T19:22:00.781Z,101369.13
2022-08-25T19:24:29.827Z,101373.13
2022-08-25T19:27:02.493Z,101378.03
2022-08-25T19:29:33.053Z,101371.44
2022-08-25T19:32:06.069Z,101350.38
2022-08-25T19:34:39.240Z,101375.69
2022-08-25T19:37:11.251Z,101375.38
2022-08-25T19:39:41.846Z,101382.19
2022-08-25T19:42:34.935Z,101391.19
2022-08-25T19:45:05.989Z,101398.34
2022-08-25T19:47:34.773Z,101390.34
2022-08-25T19:50:05.178Z,101400.47
2022-08-25T19:52:34.519Z,101398.06
2022-08-25T19:55:06.753Z,101283.56
2022-08-25T19:57:42.790Z,101402.00
2022-08-25T20:00:17.450Z,101403.09
2022-08-25T20:02:48.786Z,101419.22
2022-08-25T20:05:23.884Z,101391.31
2022-08-25T20:07:53.898Z,101424.91
2022-08-25T20:10:24.316Z,101359.81
2022-08-25T20:12:55.591Z,101413.16
2022-08-25T20:15:26.434Z,101410.25
2022-08-25T20:17:56.526Z,101353.34
2022-08-25T20:20:34.387Z,101415.34
2022-08-25T20:23:18.210Z,101418.59
2022-08-25T20:25:47.887Z,101422.56
2022-08-25T20:28:19.464Z,101427.13
2022-08-25T20:30:49.854Z,101423.31
2022-08-25T20:33:23.086Z,101423.53
2022-08-25T20:35:53.367Z,101419.81
2022-08-25T20:38:24.824Z,101434.25
2022-08-25T20:40:54.846Z,101398.78
2022-08-25T20:43:23.956Z,101420.63
2022-08-25T20:46:02.140Z,101415.59
2022-08-25T20:48:31.037Z,101430.13
2022-08-25T20:51:06.127Z,101430.50
2022-08-25T20:53:36.375Z,101434.44
2022-08-25T20:56:08.897Z,101437.03
2022-08-25T20:58:38.405Z,101428.84
2022-08-25T21:01:11.894Z,101437.41
2022-08-25T21:03:40.930Z,101442.94
2022-08-25T21:06:12.715Z,101447.47
2022-08-25T21:08:47.343Z,101446.78
2022-08-25T21:11:19.558Z,101443.56
2022-08-25T21:13:50.130Z,101447.06
2022-08-25T21:16:23.850Z,101438.81
2022-08-25T21:18:55.646Z,101446.41
2022-08-25T21:21:27.588Z,101447.44
2022-08-25T21:23:57.045Z,101448.47
2022-08-25T21:26:28.435Z,101455.75
2022-08-25T21:28:59.185Z,101454.97
2022-08-25T21:31:30.369Z,101473.53
2022-08-25T21:34:00.674Z,101454.25
2022-08-25T21:36:30.861Z,101448.84
2022-08-25T21:39:01.811Z,101454.25
2022-08-25T21:41:33.058Z,101327.69
2022-08-25T21:44:01.947Z,101453.78
2022-08-25T21:46:34.556Z,101459.94
2022-08-25T21:49:06.062Z,101430.38
2022-08-25T21:51:39.286Z,101432.75
2022-08-25T21:54:12.605Z,101467.66
2022-08-25T21:56:43.920Z,101466.78
2022-08-25T21:59:16.134Z,101450.91
2022-08-25T22:01:47.059Z,101480.38
2022-08-25T22:04:17.934Z,101469.31
2022-08-25T22:06:48.274Z,101476.63
2022-08-25T22:09:21.698Z,101478.06
2022-08-25T22:11:53.270Z,101475.50
2022-08-25T22:14:26.260Z,101474.19
2022-08-25T22:16:57.076Z,101479.66
2022-08-25T22:19:26.750Z,101475.84
2022-08-25T22:21:56.781Z,101484.31
2022-08-25T22:24:28.467Z,101488.34
2022-08-25T22:26:58.424Z,101483.97
2022-08-25T22:29:27.354Z,101484.31
2022-08-25T22:32:02.114Z,101482.53
2022-08-25T22:34:33.114Z,101492.34
2022-08-25T22:37:03.530Z,101496.94
2022-08-25T22:39:34.218Z,101475.09
2022-08-25T22:42:03.496Z,101488.91
2022-08-25T22:44:32.634Z,101481.94
2022-08-25T22:47:03.537Z,101493.00
2022-08-25T22:49:35.306Z,101502.09
2022-08-25T22:52:04.556Z,101487.94
2022-08-25T22:54:37.019Z,101498.31
2022-08-25T22:57:06.972Z,101498.28
2022-08-25T22:59:35.911Z,101494.41
2022-08-25T23:02:06.221Z,101504.38
2022-08-25T23:04:35.873Z,101498.50
2022-08-25T23:07:11.606Z,101505.34
2022-08-25T23:09:40.829Z,101505.50
2022-08-25T23:12:12.935Z,101511.31
2022-08-25T23:14:44.459Z,101506.16
2022-08-25T23:17:15.020Z,101499.94
2022-08-25T23:19:44.357Z,101496.59
2022-08-25T23:22:16.226Z,101494.56
2022-08-25T23:24:46.796Z,101512.97
2022-08-25T23:27:19.925Z,101505.50
2022-08-25T23:29:51.668Z,101503.69
2022-08-25T23:32:22.269Z,101502.38
2022-08-25T23:34:50.987Z,101501.41
2022-08-25T23:37:19.697Z,101497.81
2022-08-25T23:39:50.025Z,101517.03
2022-08-25T23:42:20.409Z,101504.91
2022-08-25T23:44:50.380Z,101513.53
2022-08-25T23:47:19.871Z,101502.47
2022-08-25T23:49:50.256Z,101502.16
2022-08-25T23:52:19.383Z,101501.41
2022-08-25T23:54:48.528Z,101503.59
2022-08-25T23:57:17.384Z,101516.31
2022-08-25T23:59:47.741Z,101503.84
